createdAt,value
2018-03-09T00:01:33.253Z,64.80
2018-03-09T00:04:00.842Z,64.70
2018-03-09T00:06:29.220Z,64.70
2018-03-09T00:08:57.568Z,64.40
2018-03-09T00:11:25.195Z,64.40
2018-03-09T00:13:52.788Z,64.60
2018-03-09T00:16:20.370Z,64.70
2018-03-09T00:18:48.752Z,64.70
2018-03-09T00:21:17.105Z,64.80
2018-03-09T00:23:44.729Z,64.80
2018-03-09T00:26:12.317Z,64.80
2018-03-09T00:28:39.952Z,65.10
2018-03-09T00:31:07.535Z,65.10
2018-03-09T00:33:35.161Z,65.20
2018-03-09T00:36:02.748Z,65.30
2018-03-09T00:38:30.344Z,65.40
2018-03-09T00:40:58.728Z,66.30
2018-03-09T00:43:27.077Z,65.50
2018-03-09T00:45:54.699Z,65.50
2018-03-09T00:48:22.290Z,65.70
2018-03-09T00:50:49.919Z,65.70
2018-03-09T00:53:17.539Z,65.50
2018-03-09T00:55:45.132Z,65.70
2018-03-09T00:58:12.756Z,65.70
2018-03-09T01:00:40.348Z,65.70
2018-03-09T01:03:07.944Z,65.70
2018-03-09T01:05:35.546Z,65.90
2018-03-09T01:08:03.155Z,65.80
2018-03-09T01:10:30.748Z,66.00
2018-03-09T01:12:58.357Z,66.00
2018-03-09T01:15:25.946Z,65.80
2018-03-09T01:17:53.563Z,66.00
2018-03-09T01:20:21.912Z,66.10
2018-03-09T01:22:49.504Z,66.00
2018-03-09T01:25:17.910Z,66.20
2018-03-09T01:27:45.513Z,66.20
2018-03-09T01:30:13.116Z,66.20
2018-03-09T01:32:40.727Z,66.00
2018-03-09T01:35:08.311Z,66.00
2018-03-09T01:37:36.708Z,66.90
2018-03-09T01:40:05.056Z,66.30
2018-03-09T01:42:32.650Z,66.30
2018-03-09T01:45:00.264Z,66.40
2018-03-09T01:47:27.856Z,66.30
2018-03-09T01:49:56.254Z,66.60
2018-03-09T01:52:35.644Z,66.50
2018-03-09T01:55:03.255Z,66.40
2018-03-09T01:57:30.853Z,66.30
2018-03-09T01:59:58.609Z,66.50
2018-03-09T02:05:19.039Z,66.40
2018-03-09T02:07:46.654Z,66.70
2018-03-09T02:10:15.068Z,66.60
2018-03-09T02:12:42.679Z,67.30
2018-03-09T02:15:11.846Z,66.40
2018-03-09T02:17:39.513Z,66.40
2018-03-09T02:20:07.162Z,66.40
2018-03-09T02:22:34.777Z,66.40
2018-03-09T02:25:03.159Z,66.80
2018-03-09T02:27:31.564Z,66.70
2018-03-09T02:29:59.267Z,66.70
2018-03-09T02:32:26.973Z,66.80
2018-03-09T02:34:55.334Z,66.90
2018-03-09T02:37:22.971Z,66.90
2018-03-09T02:39:50.597Z,67.70
2018-03-09T02:42:18.289Z,67.00
2018-03-09T02:44:45.906Z,67.00
2018-03-09T02:47:28.428Z,66.90
2018-03-09T02:49:56.054Z,67.00
2018-03-09T02:52:23.662Z,66.90
2018-03-09T02:54:51.304Z,66.90
2018-03-09T02:57:19.000Z,66.80
2018-03-09T02:59:46.750Z,66.90
2018-03-09T03:02:14.366Z,66.90
2018-03-09T03:04:42.745Z,67.00
2018-03-09T03:07:11.158Z,67.00
2018-03-09T03:09:38.773Z,67.00
2018-03-09T03:12:06.446Z,67.00
2018-03-09T03:14:34.053Z,66.90
2018-03-09T03:17:01.695Z,66.90
2018-03-09T03:19:30.066Z,67.10
2018-03-09T03:21:58.458Z,67.10
2018-03-09T03:24:26.077Z,67.10
2018-03-09T03:26:53.815Z,67.00
2018-03-09T03:29:21.422Z,67.20
2018-03-09T03:31:49.806Z,67.20
2018-03-09T03:34:18.198Z,67.40
2018-03-09T03:36:45.826Z,67.20
2018-03-09T03:39:13.562Z,67.50
2018-03-09T03:41:41.168Z,67.40
2018-03-09T03:44:09.588Z,67.40
2018-03-09T03:46:37.397Z,67.40
2018-03-09T03:49:05.010Z,67.40
2018-03-09T03:51:32.646Z,67.50
2018-03-09T03:54:01.038Z,67.40
2018-03-09T03:56:28.746Z,67.20
2018-03-09T03:58:56.505Z,67.30
2018-03-09T04:01:24.136Z,67.40
2018-03-09T04:03:51.760Z,67.30
2018-03-09T04:06:20.171Z,68.20
2018-03-09T04:08:47.782Z,67.40
2018-03-09T04:11:15.432Z,67.30
2018-03-09T04:13:43.042Z,67.80
2018-03-09T04:16:11.422Z,67.40
2018-03-09T04:18:39.949Z,67.60
2018-03-09T04:21:07.592Z,67.50
2018-03-09T04:23:35.202Z,67.40
2018-03-09T04:26:02.939Z,67.40
2018-03-09T04:28:30.575Z,67.50
2018-03-09T04:30:58.280Z,67.50
2018-03-09T04:33:25.924Z,67.50
2018-03-09T04:35:53.535Z,67.50
2018-03-09T04:38:21.909Z,67.90
2018-03-09T04:40:50.319Z,67.70
2018-03-09T04:43:17.948Z,67.70
2018-03-09T04:45:46.360Z,67.80
2018-03-09T04:48:13.975Z,67.70
2018-03-09T04:50:42.379Z,67.60
2018-03-09T04:53:10.756Z,67.90
2018-03-09T04:55:39.187Z,67.70
2018-03-09T04:58:06.805Z,67.70
2018-03-09T05:00:35.230Z,67.50
2018-03-09T05:03:02.837Z,67.50
2018-03-09T05:05:31.218Z,67.50
2018-03-09T05:07:59.630Z,67.60
2018-03-09T05:10:27.228Z,67.60
2018-03-09T05:12:54.863Z,67.60
2018-03-09T05:15:22.536Z,67.60
2018-03-09T05:17:50.202Z,67.50
2018-03-09T05:20:17.818Z,67.50
2018-03-09T05:22:46.229Z,67.50
2018-03-09T05:25:13.828Z,67.50
2018-03-09T05:27:42.206Z,67.80
2018-03-09T05:30:09.846Z,67.50
2018-03-09T05:32:37.443Z,67.50
2018-03-09T05:35:05.858Z,67.50
2018-03-09T05:37:33.482Z,67.30
2018-03-09T05:40:01.897Z,67.40
2018-03-09T05:42:29.581Z,67.30
2018-03-09T05:44:57.242Z,67.40
2018-03-09T05:47:24.854Z,67.50
2018-03-09T05:49:53.284Z,67.50
2018-03-09T05:52:20.951Z,67.50
2018-03-09T05:54:48.586Z,67.50
2018-03-09T05:57:16.209Z,67.50
2018-03-09T05:59:45.897Z,67.50
2018-03-09T06:02:14.359Z,67.70
2018-03-09T06:04:42.150Z,67.60
2018-03-09T06:07:09.773Z,67.50
2018-03-09T06:09:37.388Z,67.60
2018-03-09T06:12:05.115Z,67.60
2018-03-09T06:14:32.722Z,67.60
2018-03-09T06:17:01.095Z,67.90
2018-03-09T06:19:28.728Z,67.70
2018-03-09T06:21:56.338Z,67.90
2018-03-09T06:24:24.753Z,67.90
2018-03-09T06:26:52.423Z,67.90
2018-03-09T06:29:20.062Z,67.90
2018-03-09T06:31:47.680Z,67.90
2018-03-09T06:34:15.339Z,67.90
2018-03-09T06:36:42.989Z,67.90
2018-03-09T06:39:10.651Z,67.80
2018-03-09T06:41:38.236Z,67.80
2018-03-09T06:44:06.638Z,68.00
2018-03-09T06:46:34.292Z,67.90
2018-03-09T06:49:02.707Z,68.20
2018-03-09T06:51:30.376Z,68.10
2018-03-09T06:53:58.206Z,68.20
2018-03-09T06:56:25.918Z,68.20
2018-03-09T06:58:53.566Z,68.30
2018-03-09T07:01:21.205Z,68.30
2018-03-09T07:03:48.876Z,68.40
2018-03-09T07:06:16.501Z,68.30
2018-03-09T07:08:44.934Z,68.50
2018-03-09T07:11:12.579Z,68.30
2018-03-09T07:13:40.193Z,68.50
2018-03-09T07:16:07.846Z,68.50
2018-03-09T07:18:35.518Z,69.10
2018-03-09T07:21:03.142Z,68.70
2018-03-09T07:23:30.793Z,69.30
2018-03-09T07:25:58.404Z,68.80
2018-03-09T07:28:26.044Z,68.70
2018-03-09T07:30:53.659Z,68.70
2018-03-09T07:33:21.308Z,68.70
2018-03-09T07:35:49.706Z,68.80
2018-03-09T07:38:17.345Z,68.60
2018-03-09T07:40:45.723Z,68.70
2018-03-09T07:43:14.152Z,68.50
2018-03-09T07:45:41.915Z,68.50
2018-03-09T07:48:09.571Z,68.40
2018-03-09T07:50:37.184Z,68.50
2018-03-09T07:53:05.670Z,68.40
2018-03-09T07:55:34.222Z,68.30
2018-03-09T07:58:01.883Z,68.30
2018-03-09T08:00:29.630Z,68.50
2018-03-09T08:02:57.242Z,68.30
2018-03-09T08:05:25.685Z,68.30
2018-03-09T08:07:53.437Z,68.40
2018-03-09T08:10:21.074Z,68.50
2018-03-09T08:12:48.791Z,68.50
2018-03-09T08:15:16.418Z,68.60
2018-03-09T08:17:44.080Z,68.60
2018-03-09T08:20:11.759Z,68.50
2018-03-09T08:22:39.418Z,68.50
2018-03-09T08:25:07.073Z,68.40
2018-03-09T08:27:34.682Z,68.40
2018-03-09T08:30:03.094Z,68.80
2018-03-09T08:32:30.918Z,68.80
2018-03-09T08:34:59.334Z,68.80
2018-03-09T08:37:26.950Z,68.70
2018-03-09T08:39:54.600Z,68.90
2018-03-09T08:42:22.232Z,69.10
2018-03-09T08:44:49.878Z,69.10
2018-03-09T08:47:17.582Z,69.00
2018-03-09T08:49:45.192Z,69.30
2018-03-09T08:52:12.840Z,69.40
2018-03-09T08:54:41.216Z,69.50
2018-03-09T08:57:09.654Z,70.70
2018-03-09T08:59:37.273Z,69.80
2018-03-09T09:02:05.805Z,69.60
2018-03-09T09:04:33.434Z,69.50
2018-03-09T09:07:01.140Z,69.50
2018-03-09T09:09:28.797Z,69.50
2018-03-09T09:11:56.406Z,69.60
2018-03-09T09:14:24.028Z,69.50
2018-03-09T09:16:51.772Z,69.50
2018-03-09T09:19:19.423Z,69.40
2018-03-09T09:21:47.066Z,69.20
2018-03-09T09:24:14.698Z,69.10
2018-03-09T09:26:43.072Z,68.80
2018-03-09T09:29:10.709Z,68.60
2018-03-09T09:31:38.349Z,68.50
2018-03-09T09:34:06.016Z,68.60
2018-03-09T09:36:33.618Z,68.50
2018-03-09T09:39:01.279Z,68.50
2018-03-09T09:41:29.843Z,69.00
2018-03-09T09:43:57.615Z,68.90
2018-03-09T09:46:25.368Z,67.60
2018-03-09T09:48:53.080Z,67.60
2018-03-09T09:51:20.723Z,67.30
2018-03-09T09:53:49.175Z,66.40
2018-03-09T09:56:16.835Z,66.30
2018-03-09T09:58:46.233Z,66.20
2018-03-09T10:01:14.125Z,66.10
2018-03-09T10:03:41.873Z,66.20
2018-03-09T10:06:09.502Z,66.30
2018-03-09T10:08:37.161Z,65.90
2018-03-09T10:11:04.778Z,66.00
2018-03-09T10:13:33.332Z,66.00
2018-03-09T10:16:01.610Z,65.90
2018-03-09T10:18:29.317Z,65.90
2018-03-09T10:20:57.714Z,65.20
2018-03-09T10:23:26.103Z,65.10
2018-03-09T10:25:53.754Z,65.10
2018-03-09T10:28:21.382Z,64.60
2018-03-09T10:30:49.034Z,64.50
2018-03-09T10:33:16.710Z,64.40
2018-03-09T10:35:45.143Z,64.20
2018-03-09T10:38:12.779Z,64.20
2018-03-09T10:40:41.175Z,63.50
2018-03-09T10:43:08.880Z,63.30
2018-03-09T10:48:08.544Z,63.60
2018-03-09T10:50:36.923Z,64.10
2018-03-09T10:53:05.293Z,63.70
2018-03-09T10:55:33.836Z,63.00
2018-03-09T10:58:01.475Z,63.00
2018-03-09T11:00:34.764Z,63.10
2018-03-09T11:03:02.384Z,63.40
2018-03-09T11:05:30.011Z,63.20
2018-03-09T11:07:57.677Z,63.30
2018-03-09T11:10:25.287Z,63.50
2018-03-09T11:12:53.714Z,63.30
2018-03-09T11:15:21.685Z,63.20
2018-03-09T11:17:49.303Z,62.70
2018-03-09T11:20:17.742Z,62.70
2018-03-09T11:22:45.388Z,62.70
2018-03-09T11:25:13.064Z,62.90
2018-03-09T11:27:40.870Z,63.10
2018-03-09T11:30:09.282Z,60.90
2018-03-09T11:32:36.940Z,60.90
2018-03-09T11:35:04.559Z,61.50
2018-03-09T11:37:32.212Z,61.20
2018-03-09T11:40:00.079Z,60.40
2018-03-09T11:42:27.699Z,60.70
2018-03-09T11:44:55.378Z,60.40
2018-03-09T11:47:23.251Z,60.10
2018-03-09T11:49:51.337Z,60.70
2018-03-09T11:52:22.332Z,60.20
2018-03-09T11:54:50.209Z,60.00
2018-03-09T11:57:18.131Z,59.90
2018-03-09T11:59:46.692Z,59.90
2018-03-09T12:02:14.593Z,59.90
2018-03-09T12:04:43.217Z,59.00
2018-03-09T12:07:11.103Z,58.90
2018-03-09T12:09:39.084Z,59.20
2018-03-09T12:12:06.949Z,58.80
2018-03-09T12:14:34.813Z,58.80
2018-03-09T12:17:02.689Z,58.40
2018-03-09T12:19:30.632Z,58.10
2018-03-09T12:21:58.649Z,58.30
2018-03-09T12:24:26.608Z,58.40
2018-03-09T12:26:55.280Z,56.90
2018-03-09T12:29:23.251Z,56.80
2018-03-09T12:31:51.531Z,56.60
2018-03-09T12:34:19.396Z,56.70
2018-03-09T12:36:47.262Z,56.40
2018-03-09T12:39:15.180Z,56.80
2018-03-09T12:41:43.090Z,56.70
2018-03-09T12:44:12.390Z,56.80
2018-03-09T12:46:43.191Z,57.20
2018-03-09T12:49:13.247Z,57.20
2018-03-09T12:51:43.382Z,57.40
2018-03-09T12:54:13.685Z,57.10
2018-03-09T12:56:43.703Z,57.40
2018-03-09T12:59:14.184Z,57.10
2018-03-09T13:01:56.696Z,56.90
2018-03-09T13:04:27.236Z,56.20
2018-03-09T13:06:57.308Z,56.50
2018-03-09T13:09:28.039Z,56.50
2018-03-09T13:11:58.707Z,56.70
2018-03-09T13:14:28.929Z,56.50
2018-03-09T13:19:51.270Z,56.10
2018-03-09T13:22:18.873Z,56.20
2018-03-09T13:24:48.014Z,56.40
2018-03-09T13:27:15.607Z,56.30
2018-03-09T13:29:43.208Z,56.40
2018-03-09T13:32:11.591Z,55.90
2018-03-09T13:34:39.951Z,56.20
2018-03-09T13:37:07.583Z,56.20
2018-03-09T13:39:35.185Z,56.40
2018-03-09T13:42:03.584Z,56.40
2018-03-09T13:44:31.390Z,56.40
2018-03-09T13:46:58.983Z,56.80
2018-03-09T13:49:29.957Z,56.90
2018-03-09T13:51:59.741Z,56.70
2018-03-09T13:54:29.745Z,56.80
2018-03-09T13:56:57.623Z,56.80
2018-03-09T13:59:26.279Z,56.40
2018-03-09T14:01:54.097Z,56.40
2018-03-09T14:04:21.902Z,56.40
2018-03-09T14:06:49.771Z,56.80
2018-03-09T14:09:17.642Z,56.90
2018-03-09T14:11:45.425Z,56.80
2018-03-09T14:16:45.062Z,56.30
2018-03-09T14:19:13.816Z,56.40
2018-03-09T14:21:41.578Z,56.40
2018-03-09T14:24:09.442Z,56.10
2018-03-09T14:26:37.216Z,56.20
2018-03-09T14:29:05.188Z,56.20
2018-03-09T14:31:33.106Z,55.80
2018-03-09T14:34:00.913Z,56.20
2018-03-09T14:36:28.777Z,55.90
2018-03-09T14:38:56.544Z,56.00
2018-03-09T14:41:24.369Z,55.70
2018-03-09T14:43:52.174Z,55.70
2018-03-09T14:46:20.005Z,55.40
2018-03-09T14:48:47.778Z,55.30
2018-03-09T14:51:15.520Z,55.80
2018-03-09T14:53:43.441Z,55.40
2018-03-09T14:56:11.776Z,55.80
2018-03-09T14:58:39.686Z,56.60
2018-03-09T15:01:08.369Z,56.20
2018-03-09T15:03:37.069Z,56.10
2018-03-09T15:08:39.638Z,55.70
2018-03-09T15:11:07.832Z,56.10
2018-03-09T15:13:36.758Z,55.80
2018-03-09T15:16:05.402Z,56.20
2018-03-09T15:18:33.278Z,56.20
2018-03-09T15:21:01.243Z,56.20
2018-03-09T15:23:29.113Z,56.00
2018-03-09T15:25:57.079Z,55.80
2018-03-09T15:28:25.752Z,56.60
2018-03-09T15:30:54.396Z,56.50
2018-03-09T15:33:22.313Z,56.20
2018-03-09T15:35:50.174Z,56.60
2018-03-09T15:38:18.007Z,56.80
2018-03-09T15:40:45.811Z,56.40
2018-03-09T15:43:13.670Z,56.40
2018-03-09T15:45:41.547Z,56.10
2018-03-09T15:48:09.409Z,55.90
2018-03-09T15:50:37.271Z,55.70
2018-03-09T15:53:05.146Z,55.90
2018-03-09T15:55:33.011Z,56.40
2018-03-09T15:58:00.769Z,56.50
2018-03-09T16:00:28.645Z,56.30
2018-03-09T16:02:56.501Z,56.10
2018-03-09T16:05:24.372Z,56.40
2018-03-09T16:07:52.239Z,56.20
2018-03-09T16:10:20.106Z,56.40
2018-03-09T16:12:47.740Z,56.00
2018-03-09T16:15:15.538Z,55.70
2018-03-09T16:17:43.405Z,56.10
2018-03-09T16:20:11.267Z,56.00
2018-03-09T16:22:39.134Z,56.50
2018-03-09T16:25:06.996Z,56.40
2018-03-09T16:27:34.869Z,56.50
2018-03-09T16:30:02.728Z,56.60
2018-03-09T16:32:30.627Z,56.60
2018-03-09T16:34:59.288Z,56.70
2018-03-09T16:37:27.148Z,56.70
2018-03-09T16:39:55.021Z,56.70
2018-03-09T16:42:22.886Z,56.60
2018-03-09T16:44:50.756Z,56.80
2018-03-09T16:47:18.619Z,56.80
2018-03-09T16:49:46.485Z,56.80
2018-03-09T16:52:14.255Z,56.80
2018-03-09T16:54:42.939Z,56.60
2018-03-09T16:57:10.759Z,56.60
2018-03-09T16:59:38.574Z,56.60
2018-03-09T17:02:06.438Z,56.50
2018-03-09T17:04:34.257Z,56.60
2018-03-09T17:07:02.171Z,56.50
2018-03-09T17:09:29.927Z,56.80
2018-03-09T17:11:57.691Z,56.90
2018-03-09T17:14:25.567Z,56.70
2018-03-09T17:16:53.630Z,56.60
2018-03-09T17:19:21.256Z,56.60
2018-03-09T17:21:49.019Z,56.70
2018-03-09T17:24:16.928Z,56.60
2018-03-09T17:26:44.672Z,56.40
2018-03-09T17:29:12.460Z,56.50
2018-03-09T17:31:40.318Z,56.50
2018-03-09T17:34:08.087Z,56.70
2018-03-09T17:36:35.947Z,56.70
2018-03-09T17:39:03.923Z,56.80
2018-03-09T17:41:31.791Z,57.00
2018-03-09T17:43:59.655Z,56.90
2018-03-09T17:46:27.526Z,56.90
2018-03-09T17:48:55.392Z,57.00
2018-03-09T17:51:23.256Z,57.00
2018-03-09T17:53:51.202Z,57.00
2018-03-09T17:56:19.045Z,56.90
2018-03-09T17:58:46.957Z,56.90
2018-03-09T18:01:14.727Z,56.80
2018-03-09T18:03:42.588Z,56.70
2018-03-09T18:06:10.353Z,56.80
2018-03-09T18:08:38.223Z,56.80
2018-03-09T18:11:06.087Z,56.70
2018-03-09T18:13:33.952Z,56.60
2018-03-09T18:16:01.830Z,56.60
2018-03-09T18:18:29.687Z,56.60
2018-03-09T18:20:57.552Z,56.60
2018-03-09T18:23:25.423Z,56.40
2018-03-09T18:25:53.285Z,56.40
2018-03-09T18:28:21.151Z,56.40
2018-03-09T18:30:49.026Z,56.50
2018-03-09T18:33:17.775Z,56.60
2018-03-09T18:35:45.497Z,56.70
2018-03-09T18:38:13.346Z,57.00
2018-03-09T18:40:41.216Z,56.90
2018-03-09T18:43:09.095Z,56.50
2018-03-09T18:45:36.939Z,56.50
2018-03-09T18:48:04.701Z,56.50
2018-03-09T18:50:32.576Z,56.60
2018-03-09T18:53:00.249Z,56.70
2018-03-09T18:55:27.840Z,57.00
2018-03-09T18:57:56.232Z,57.40
2018-03-09T19:00:23.828Z,57.30
2018-03-09T19:02:51.468Z,57.30
2018-03-09T19:05:19.084Z,57.10
2018-03-09T19:07:47.460Z,57.40
2018-03-09T19:10:15.077Z,57.20
2018-03-09T19:12:42.676Z,57.20
2018-03-09T19:15:10.304Z,57.20
2018-03-09T19:17:37.900Z,57.30
2018-03-09T19:20:05.500Z,57.20
2018-03-09T19:22:33.133Z,57.50
2018-03-09T19:25:01.787Z,57.10
2018-03-09T19:27:29.652Z,57.10
2018-03-09T19:29:57.417Z,57.00
2018-03-09T19:32:25.278Z,57.10
2018-03-09T19:34:53.147Z,57.10
2018-03-09T19:37:21.020Z,57.10
2018-03-09T19:39:48.884Z,57.00
2018-03-09T19:42:16.754Z,57.00
2018-03-09T19:44:44.620Z,57.10
2018-03-09T19:47:12.493Z,57.00
2018-03-09T19:49:40.348Z,56.90
2018-03-09T19:52:08.217Z,57.10
2018-03-09T19:54:36.086Z,57.10
2018-03-09T19:57:03.953Z,57.40
2018-03-09T19:59:31.823Z,57.50
2018-03-09T20:01:59.679Z,57.00
2018-03-09T20:04:27.557Z,57.20
2018-03-09T20:06:55.416Z,57.40
2018-03-09T20:09:24.104Z,57.40
2018-03-09T20:11:51.972Z,57.30
2018-03-09T20:14:19.804Z,57.40
2018-03-09T20:16:47.707Z,57.30
2018-03-09T20:19:15.473Z,57.30
2018-03-09T20:21:43.333Z,57.40
2018-03-09T20:24:11.206Z,57.50
2018-03-09T20:26:38.972Z,57.50
2018-03-09T20:29:06.600Z,57.40
2018-03-09T20:31:34.242Z,57.30
2018-03-09T20:34:02.585Z,57.30
2018-03-09T20:36:30.218Z,58.00
2018-03-09T20:38:57.812Z,58.10
2018-03-09T20:41:25.660Z,58.10
2018-03-09T20:43:53.553Z,58.30
2018-03-09T20:46:22.215Z,58.10
2018-03-09T20:48:50.075Z,58.10
2018-03-09T20:51:17.940Z,58.20
2018-03-09T20:53:45.706Z,58.10
2018-03-09T20:56:13.566Z,58.20
2018-03-09T20:58:41.439Z,58.20
2018-03-09T21:01:09.307Z,58.30
2018-03-09T21:03:37.175Z,58.40
2018-03-09T21:06:05.042Z,58.40
2018-03-09T21:08:32.899Z,58.20
2018-03-09T21:11:00.780Z,58.20
2018-03-09T21:13:29.323Z,58.20
2018-03-09T21:15:57.121Z,58.20
2018-03-09T21:18:24.982Z,58.20
2018-03-09T21:20:52.755Z,58.10
2018-03-09T21:23:20.623Z,58.20
2018-03-09T21:25:48.482Z,58.40
2018-03-09T21:28:16.475Z,58.40
2018-03-09T21:30:45.005Z,58.40
2018-03-09T21:33:12.812Z,58.30
2018-03-09T21:35:40.772Z,58.40
2018-03-09T21:38:08.636Z,58.50
2018-03-09T21:40:36.509Z,58.40
2018-03-09T21:43:04.366Z,58.50
2018-03-09T21:45:31.994Z,58.60
2018-03-09T21:47:59.678Z,58.60
2018-03-09T21:50:27.343Z,58.80
2018-03-09T21:52:55.321Z,58.70
2018-03-09T21:55:23.085Z,58.70
2018-03-09T21:57:50.958Z,58.60
2018-03-09T22:00:18.824Z,58.90
2018-03-09T22:02:46.689Z,58.90
2018-03-09T22:05:14.460Z,58.90
2018-03-09T22:07:42.322Z,59.10
2018-03-09T22:10:10.191Z,59.00
2018-03-09T22:12:38.055Z,59.00
2018-03-09T22:15:05.922Z,59.00
2018-03-09T22:17:33.685Z,59.10
2018-03-09T22:20:01.558Z,59.30
2018-03-09T22:22:29.311Z,59.40
2018-03-09T22:24:57.184Z,59.30
2018-03-09T22:27:24.943Z,59.30
2018-03-09T22:29:52.820Z,59.50
2018-03-09T22:32:20.679Z,59.40
2018-03-09T22:34:48.453Z,59.40
2018-03-09T22:37:17.850Z,59.20
2018-03-09T22:39:45.615Z,59.10
2018-03-09T22:42:13.485Z,59.10
2018-03-09T22:44:41.353Z,59.20
2018-03-09T22:47:10.034Z,59.20
2018-03-09T22:49:37.897Z,59.20
2018-03-09T22:52:05.764Z,59.20
2018-03-09T22:54:33.636Z,59.20
2018-03-09T22:57:01.425Z,59.40
2018-03-09T22:59:29.367Z,59.50
2018-03-09T23:01:57.238Z,59.40
2018-03-09T23:04:25.100Z,59.20
2018-03-09T23:06:52.964Z,59.30
2018-03-09T23:09:20.831Z,59.30
2018-03-09T23:11:48.698Z,59.30
2018-03-09T23:14:16.573Z,59.80
2018-03-09T23:16:44.329Z,59.20
2018-03-09T23:19:12.194Z,59.30
2018-03-09T23:21:39.957Z,59.40
2018-03-09T23:24:07.829Z,59.30
2018-03-09T23:26:35.692Z,59.40
2018-03-09T23:29:03.562Z,59.40
2018-03-09T23:31:31.434Z,59.50
2018-03-09T23:33:59.297Z,59.40
2018-03-09T23:36:27.168Z,59.40
2018-03-09T23:38:55.037Z,59.50
2018-03-09T23:41:22.890Z,59.50
2018-03-09T23:43:50.763Z,59.40
2018-03-09T23:46:18.364Z,59.40
2018-03-09T23:48:46.760Z,59.60
2018-03-09T23:51:14.431Z,59.50
2018-03-09T23:53:42.058Z,59.40
2018-03-09T23:56:10.462Z,59.40
2018-03-09T23:58:38.052Z,59.40
